BGJN

Details ICAO BGJN (JAV)
Name Ilulissat
Region Greenland
Timezone America/Godthab (UTC-2.0)
Plans Departing 15
Arriving 30
Stats Elevation 95 ft / 29 m (AMSL)
Location 69.243200° -51.057100°
Runways 1
Magnetic Variation 30.697° W
Sunrise 2018-10-23 11:07:23 UTC / 2018-10-23 09:07:23 Local
Sunset 2018-10-23 19:12:02 UTC / 2018-10-23 17:12:02 Local
Advertisement - Login to hide

Runways

ID Width Length Bearing (true/mag) Surface Threshold Overrun Markings Lighting
08 98 ft / 30 m 2,775 ft / 846 m 35.69° / 66.39° CONCRETE 0 ft / 0 m 0 ft / 0 m APP EDGE THRESHOLD MALS
26 98 ft / 30 m 2,775 ft / 846 m 215.71° / 246.40° CONCRETE 0 ft / 0 m 0 ft / 0 m APP EDGE THRESHOLD MALS

Map

Weather


0- 5 10 15 20 25 30 35+ Temperature / °C

Clouds and Precipitation
Forecast for 2018-10-24 00:00 UTC. Updated 2 hours ago

Ground ~20,000 ft ~40,000 ft Winds

METAR

BGJN 232250Z AUTO 09016KT 9999NDV BKN036/// OVC041/// M12/M20 Q1018

TAF

Not found
Warning: Do not use this data for real-world aviation or navigation. No guarantee of current accuracy is given.